Station: Minnipa Rs  

  Atmospheric Gas Attenuation - ITU Rec 676-11   ----------------- dB/100km -----------------
Date Time Temp RH % AH g/m3 Dew Point Wind Direction Speed kph Gust kph Barometer mB Rainfall Since 9am 24GHz 47GHz 76GHz 122GHz 134GHz 241GHz
08/05 12:00 15.4 59 7.75 7.4 20 26 1033.5 17.7 24.8 36.6 95.6 87.1 298.8
08/05 11:50 15.4 58 7.62 7.2 19 20 1033.6 17.4 24.6 36.1 94.2 85.4 293.0
08/05 11:40 15.4 58 7.62 7.2 19 24 1033.8 17.4 24.7 36.1 94.2 85.4 293.1
08/05 11:30 15.5 57 7.53 7 17 24 1033.8 17.2 24.5 35.7 93.2 84.2 288.7
08/05 11:20 15.1 58 7.48 6.9 19 20 1034 17.1 24.5 35.7 93.2 84.0 288.0
08/05 11:10 15.1 58 7.48 6.9 20 24 1034 17.1 24.5 35.7 93.2 84.0 288.0
08/05 11:00 15 59 7.57 7.1 19 26 1034 17.3 24.7 36.1 94.2 85.3 292.4
08/05 10:50 15.2 59 7.66 7.2 17 22 1034.1 17.5 24.8 36.3 94.9 86.2 295.6
08/05 10:40 15 59 7.57 7.1 17 17 1034.1 17.3 24.7 36.1 94.2 85.3 292.4
08/05 10:30 15.3 59 7.7 7.3 17 24 1034 17.6 24.8 36.4 95.2 86.6 297.0
08/05 10:20 14.9 58 7.39 6.7 20 22 1034 16.9 24.4 35.4 92.5 83.1 284.7
08/05 10:10 14.9 57 7.26 6.5 19 22 1034 16.7 24.2 34.9 91.2 81.4 279.0
08/05 10:00 15.1 59 7.61 7.2 15 20 1033.9 17.4 24.7 36.2 94.5 85.6 293.7
08/05 09:50 14.3 58 7.13 6.2 13 17 1034.1 16.4 24.2 34.7 90.5 80.4 275.4
08/05 09:40 14.3 61 7.49 6.9 15 19 1034.1 17.2 24.8 36.1 94.2 85.0 291.4
08/05 09:30 13.8 63 7.51 6.9 13 17 1033.9 17.3 24.9 36.4 95.0 85.8 294.1
08/05 09:20 13.6 66 7.77 7.4 11 13 1034.1 17.8 25.4 37.5 98.0 89.4 306.7
08/05 09:10 13.2 69 7.92 7.6 11 13 1034 18.1 25.7 38.3 100.1 91.8 315.1
08/05 09:00 12.6 72 7.97 7.7 9 13 1034 18.3 26.0 38.8 101.4 93.2 319.8
08/05 08:50 12.3 74 8.04 7.8 7 9 1034.1 18.4 26.2 39.2 102.5 94.5 324.3
08/05 08:40 12 75 7.99 7.7 7 9 1034 18.4 26.2 39.1 102.4 94.2 323.2
08/05 08:30 11.8 76 8 7.7 6 9 1033.9 18.4 26.3 39.3 102.7 94.5 324.5
08/05 08:20 11.6 77 8 7.7 0 0 1033.9 18.4 26.3 39.4 103.0 94.8 325.3
08/05 08:10 11.3 76 7.75 7.2 4 6 1033.8 17.9 26.0 38.5 100.6 91.8 314.7
08/05 08:00 11.1 77 7.76 7.2 6 7 1033.7 17.9 26.1 38.6 101.0 92.1 315.9
08/05 07:50 11 77 7.71 7.1 6 7 1033.6 17.8 26.0 38.5 100.6 91.6 314.0
08/05 07:40 10.8 78 7.71 7.1 0 0 1033.5 17.8 26.1 38.6 100.8 91.8 314.7
08/05 07:30 10.7 78 7.66 7 0 0 1033.5 17.7 26.0 38.4 100.4 91.2 312.8
08/05 07:20 10.7 78 7.66 7 0 0 1033.3 17.7 26.0 38.4 100.4 91.2 312.7
08/05 07:10 10.7 77 7.56 6.8 0 0 1033.3 17.5 25.9 38.0 99.3 89.9 308.0
08/05 07:00 10.7 77 7.56 6.8 4 7 1033.3 17.5 25.9 38.0 99.3 89.9 308.0
08/05 06:50 10.8 76 7.51 6.7 6 6 1033.2 17.4 25.7 37.7 98.6 89.1 305.2
08/05 06:40 10.9 75 7.46 6.6 7 7 1033.1 17.3 25.6 37.5 97.9 88.3 302.5
08/05 06:30 11.1 74 7.46 6.6 7 9 1033.2 17.3 25.6 37.4 97.7 88.1 301.7
08/05 06:20 11.3 72 7.35 6.4 7 7 1033.1 17.0 25.3 36.9 96.3 86.4 295.8
08/05 06:10 11.2 72 7.3 6.3 7 7 1033 16.9 25.3 36.7 95.8 85.8 293.9
08/05 06:00 11.2 72 7.3 6.3 9 9 1033 16.9 25.3 36.7 95.8 85.8 293.9
08/05 05:50 11.2 73 7.4 6.5 9 9 1032.9 17.1 25.4 37.1 96.9 87.1 298.5
08/05 05:40 10.9 74 7.36 6.5 6 6 1032.9 17.1 25.5 37.1 96.8 87.0 297.8
08/05 05:30 11 74 7.41 6.6 6 7 1033 17.2 25.5 37.2 97.3 87.5 299.7
08/05 05:20 10.8 75 7.41 6.6 6 7 1032.9 17.2 25.6 37.3 97.5 87.7 300.5
08/05 05:10 10.7 75 7.37 6.5 6 6 1032.9 17.1 25.5 37.2 97.2 87.3 299.0
08/05 05:00 10.7 75 7.37 6.5 6 6 1032.9 17.1 25.5 37.2 97.2 87.3 299.0
08/05 04:50 10.6 76 7.42 6.6 6 7 1032.8 17.2 25.6 37.4 97.8 88.1 301.7
08/05 04:40 10.5 76 7.37 6.5 0 0 1032.8 17.1 25.6 37.3 97.4 87.5 299.7
08/05 04:30 10.5 76 7.37 6.5 2 6 1032.8 17.1 25.6 37.3 97.4 87.5 299.7
08/05 04:20 10.5 76 7.37 6.5 6 7 1032.8 17.1 25.6 37.3 97.4 87.5 299.7
08/05 04:10 10.4 76 7.33 6.4 4 6 1032.8 17.0 25.5 37.2 97.1 87.1 298.2
08/05 04:00 10.3 76 7.28 6.3 4 6 1032.7 16.9 25.5 37.0 96.7 86.5 296.2
08/05 03:50 10.4 77 7.42 6.5 6 6 1032.7 17.2 25.7 37.5 98.1 88.3 302.4
08/05 03:40 10.3 77 7.38 6.5 6 6 1032.7 17.1 25.7 37.4 97.8 87.9 300.9
08/05 03:30 10.3 76 7.28 6.3 7 9 1032.8 16.9 25.5 37.0 96.7 86.5 296.3
08/05 03:20 10.4 75 7.23 6.2 7 7 1032.9 16.8 25.4 36.8 96.0 85.8 293.6
08/05 03:10 10.4 74 7.13 6 6 6 1032.8 16.6 25.2 36.4 95.0 84.4 288.9
08/05 03:00 10.6 72 7.03 5.8 7 9 1032.8 16.4 25.0 35.9 93.6 82.9 283.5
08/05 02:50 10.6 73 7.13 6 7 7 1032.7 16.6 25.2 36.3 94.7 84.2 288.1
08/05 02:40 10.6 72 7.03 5.8 9 9 1032.7 16.4 25.0 35.9 93.6 82.9 283.5
08/05 02:30 10.7 71 6.98 5.7 9 11 1032.6 16.3 24.9 35.6 93.0 82.1 280.8
08/05 02:20 10.7 72 7.07 5.9 9 9 1032.7 16.4 25.0 36.0 93.9 83.3 285.0
08/05 02:10 10.6 72 7.03 5.8 11 11 1032.7 16.4 25.0 35.9 93.6 82.9 283.5
08/05 02:00 10.5 71 6.89 5.5 7 9 1032.8 16.1 24.8 35.4 92.3 81.2 277.4
08/05 01:50 10.5 72 6.98 5.7 7 9 1032.9 16.3 25.0 35.7 93.2 82.4 281.6
08/05 01:40 10.3 73 6.99 5.7 9 9 1032.9 16.3 25.0 35.9 93.6 82.7 282.8
08/05 01:30 10.2 74 7.04 5.8 9 11 1032.9 16.4 25.1 36.1 94.2 83.5 285.5
08/05 01:20 10 74 6.96 5.6 9 11 1032.9 16.2 25.1 35.9 93.6 82.6 282.5
08/05 01:10 9.9 74 6.91 5.5 9 11 1032.9 16.1 25.0 35.7 93.2 82.1 280.5
08/05 01:00 9.3 77 6.92 5.5 7 11 1033 16.2 25.2 36.0 94.0 82.8 283.1
08/05 00:50 9.3 76 6.83 5.3 7 7 1033 16.0 25.0 35.7 93.1 81.6 278.9
08/05 00:40 9.4 75 6.79 5.2 7 9 1033 15.9 25.0 35.5 92.5 81.0 276.7
08/05 00:30 9.2 76 6.79 5.2 9 11 1033 15.9 25.0 35.5 92.7 81.2 277.4
08/05 00:20 9 76 6.7 5 7 9 1033 15.7 24.9 35.3 92.0 80.2 273.9
08/05 00:10 8.7 75 6.49 4.5 9 11 1033 15.3 24.7 34.6 90.1 77.7 265.1
08/05 00:00 8.6 76 6.53 4.6 9 11 1033 15.4 24.8 34.8 90.6 78.4 267.3
07/05 23:50 8.5 77 6.58 4.7 9 9 1033.1 15.5 24.9 35.0 91.3 79.1 270.0
07/05 23:40 8.4 77 6.53 4.6 9 9 1033.2 15.4 24.8 34.9 90.9 78.6 268.1
07/05 23:30 8.4 77 6.53 4.6 7 9 1033.3 15.4 24.8 34.9 90.9 78.6 268.1
07/05 23:20 8.5 77 6.58 4.7 7 9 1033.2 15.5 24.9 35.0 91.3 79.1 270.1
07/05 23:10 8.4 76 6.45 4.4 9 9 1033.3 15.2 24.7 34.5 90.0 77.5 264.4
07/05 23:00 8.8 74 6.44 4.4 9 13 1033.3 15.2 24.6 34.3 89.5 77.0 262.6
07/05 22:50 9.2 74 6.61 4.8 11 13 1033.3 15.5 24.7 34.8 90.8 78.8 269.1
07/05 22:40 9.4 73 6.6 4.8 13 13 1033.4 15.5 24.7 34.7 90.5 78.5 268.0
07/05 22:30 9.8 72 6.68 5 13 17 1033.4 15.7 24.7 34.9 90.9 79.2 270.3
07/05 22:20 9.5 74 6.74 5.1 13 15 1033.4 15.8 24.9 35.2 91.9 80.3 274.1
07/05 22:10 9.4 76 6.88 5.4 11 13 1033.5 16.1 25.1 35.8 93.5 82.2 281.0
07/05 22:00 9.1 77 6.83 5.3 11 13 1033.4 16.0 25.1 35.8 93.3 81.9 279.7
07/05 21:50 9.2 76 6.79 5.2 11 11 1033.4 15.9 25.0 35.6 92.8 81.2 277.5
07/05 21:40 9.1 75 6.66 4.9 9 11 1033.3 15.6 24.8 35.1 91.5 79.6 271.8
07/05 21:30 9.3 75 6.74 5.1 11 13 1033.3 15.8 24.9 35.3 92.1 80.5 274.8
07/05 21:20 9.6 74 6.78 5.2 11 11 1033.3 15.9 24.9 35.3 92.2 80.7 275.6
07/05 21:10 9.8 73 6.77 5.2 11 13 1033.3 15.8 24.8 35.2 91.9 80.3 274.4
07/05 21:00 9.9 72 6.72 5.1 11 15 1033.3 15.7 24.7 35.0 91.2 79.6 271.8
07/05 20:50 9.9 71 6.63 4.9 11 13 1033.3 15.5 24.6 34.6 90.2 78.4 267.6
07/05 20:40 10.2 69 6.57 4.8 11 15 1033.3 15.4 24.4 34.2 89.3 77.3 263.9
07/05 20:30 10.2 69 6.57 4.8 11 13 1033.2 15.4 24.4 34.2 89.3 77.3 263.9
07/05 20:20 10.2 68 6.47 4.6 11 13 1033.2 15.2 24.2 33.8 88.2 76.0 259.3
07/05 20:10 10.4 66 6.36 4.3 11 13 1033 14.9 24.0 33.3 86.8 74.4 253.6
07/05 20:00 10.5 65 6.31 4.2 11 15 1033 14.8 23.9 33.1 86.2 73.7 251.1
07/05 19:50 10.8 63 6.23 4 11 13 1032.9 14.7 23.7 32.7 85.0 72.3 246.5
07/05 19:40 11.3 61 6.22 4.1 13 15 1032.9 14.6 23.5 32.4 84.4 71.8 244.5
07/05 19:30 11.2 61 6.18 4 15 19 1032.8 14.5 23.5 32.3 84.1 71.3 243.1

Last Refresh: 08-May-2026 12:08:16

Bureau of Meteorology